sensor_id;sensor_type;location;lat;lon;timestamp;P1;durP1;ratioP1;P2;durP2;ratioP2
20814;SDS011;10568;48.176;16.316;2022-09-09T00:03:47;0.43;;;0.40;;
20814;SDS011;10568;48.176;16.316;2022-09-09T00:06:23;0.40;;;0.30;;
20814;SDS011;10568;48.176;16.316;2022-09-09T00:11:49;0.53;;;0.43;;
20814;SDS011;10568;48.176;16.316;2022-09-09T00:17:51;0.60;;;0.37;;
20814;SDS011;10568;48.176;16.316;2022-09-09T00:23:17;0.27;;;0.20;;
20814;SDS011;10568;48.176;16.316;2022-09-09T00:28:20;0.30;;;0.30;;
20814;SDS011;10568;48.176;16.316;2022-09-09T00:30:49;0.30;;;0.30;;
20814;SDS011;10568;48.176;16.316;2022-09-09T00:33:17;0.30;;;0.30;;
20814;SDS011;10568;48.176;16.316;2022-09-09T00:35:55;1.37;;;0.50;;
20814;SDS011;10568;48.176;16.316;2022-09-09T00:38:24;0.43;;;0.30;;
20814;SDS011;10568;48.176;16.316;2022-09-09T00:41:10;0.50;;;0.27;;
20814;SDS011;10568;48.176;16.316;2022-09-09T00:44:00;0.40;;;0.40;;
20814;SDS011;10568;48.176;16.316;2022-09-09T00:46:50;1.43;;;0.40;;
20814;SDS011;10568;48.176;16.316;2022-09-09T00:49:23;0.30;;;0.30;;
20814;SDS011;10568;48.176;16.316;2022-09-09T01:01:30;0.63;;;0.33;;
20814;SDS011;10568;48.176;16.316;2022-09-09T01:03:56;0.40;;;0.40;;
20814;SDS011;10568;48.176;16.316;2022-09-09T01:06:32;0.30;;;0.30;;
20814;SDS011;10568;48.176;16.316;2022-09-09T01:14:49;1.00;;;0.50;;
20814;SDS011;10568;48.176;16.316;2022-09-09T01:17:19;3.13;;;0.50;;
20814;SDS011;10568;48.176;16.316;2022-09-09T01:22:51;2.00;;;0.50;;
20814;SDS011;10568;48.176;16.316;2022-09-09T01:28:30;0.90;;;0.30;;
20814;SDS011;10568;48.176;16.316;2022-09-09T01:31:00;0.93;;;0.47;;
20814;SDS011;10568;48.176;16.316;2022-09-09T01:33:27;0.40;;;0.20;;
20814;SDS011;10568;48.176;16.316;2022-09-09T01:38:23;0.97;;;0.47;;
20814;SDS011;10568;48.176;16.316;2022-09-09T01:40:50;0.50;;;0.50;;
20814;SDS011;10568;48.176;16.316;2022-09-09T01:43:20;0.47;;;0.47;;
20814;SDS011;10568;48.176;16.316;2022-09-09T01:45:48;2.57;;;0.40;;
20814;SDS011;10568;48.176;16.316;2022-09-09T01:48:18;0.33;;;0.30;;
20814;SDS011;10568;48.176;16.316;2022-09-09T01:50:46;0.63;;;0.50;;
20814;SDS011;10568;48.176;16.316;2022-09-09T01:53:12;0.40;;;0.40;;
20814;SDS011;10568;48.176;16.316;2022-09-09T01:55:42;0.40;;;0.40;;
20814;SDS011;10568;48.176;16.316;2022-09-09T02:00:44;0.40;;;0.30;;
20814;SDS011;10568;48.176;16.316;2022-09-09T02:03:27;1.80;;;0.30;;
20814;SDS011;10568;48.176;16.316;2022-09-09T02:06:17;0.40;;;0.40;;
20814;SDS011;10568;48.176;16.316;2022-09-09T02:08:50;0.40;;;0.30;;
20814;SDS011;10568;48.176;16.316;2022-09-09T02:11:21;0.80;;;0.40;;
20814;SDS011;10568;48.176;16.316;2022-09-09T02:13:51;0.30;;;0.30;;
20814;SDS011;10568;48.176;16.316;2022-09-09T02:16:24;0.57;;;0.30;;
20814;SDS011;10568;48.176;16.316;2022-09-09T02:19:08;0.40;;;0.30;;
20814;SDS011;10568;48.176;16.316;2022-09-09T02:21:38;0.50;;;0.40;;
20814;SDS011;10568;48.176;16.316;2022-09-09T02:24:07;0.80;;;0.40;;
20814;SDS011;10568;48.176;16.316;2022-09-09T02:26:37;0.47;;;0.30;;
20814;SDS011;10568;48.176;16.316;2022-09-09T02:29:07;0.60;;;0.50;;
20814;SDS011;10568;48.176;16.316;2022-09-09T02:31:39;0.30;;;0.30;;
20814;SDS011;10568;48.176;16.316;2022-09-09T02:34:08;0.40;;;0.30;;
20814;SDS011;10568;48.176;16.316;2022-09-09T02:36:36;0.67;;;0.40;;
20814;SDS011;10568;48.176;16.316;2022-09-09T02:39:05;0.60;;;0.40;;
20814;SDS011;10568;48.176;16.316;2022-09-09T02:41:34;2.10;;;0.33;;
20814;SDS011;10568;48.176;16.316;2022-09-09T02:44:04;0.90;;;0.50;;
20814;SDS011;10568;48.176;16.316;2022-09-09T02:49:52;0.50;;;0.50;;
20814;SDS011;10568;48.176;16.316;2022-09-09T02:54:57;0.67;;;0.40;;
20814;SDS011;10568;48.176;16.316;2022-09-09T02:57:30;2.00;;;0.40;;
20814;SDS011;10568;48.176;16.316;2022-09-09T03:00:00;0.73;;;0.40;;
20814;SDS011;10568;48.176;16.316;2022-09-09T03:02:26;0.30;;;0.30;;
20814;SDS011;10568;48.176;16.316;2022-09-09T03:04:52;0.50;;;0.40;;
20814;SDS011;10568;48.176;16.316;2022-09-09T03:07:19;0.80;;;0.40;;
20814;SDS011;10568;48.176;16.316;2022-09-09T03:09:45;0.67;;;0.40;;
20814;SDS011;10568;48.176;16.316;2022-09-09T03:12:10;0.30;;;0.30;;
20814;SDS011;10568;48.176;16.316;2022-09-09T03:14:37;0.40;;;0.40;;
20814;SDS011;10568;48.176;16.316;2022-09-09T03:17:04;1.60;;;0.30;;
20814;SDS011;10568;48.176;16.316;2022-09-09T03:19:31;0.57;;;0.50;;
20814;SDS011;10568;48.176;16.316;2022-09-09T03:21:57;1.40;;;0.40;;
20814;SDS011;10568;48.176;16.316;2022-09-09T03:24:23;0.30;;;0.30;;
20814;SDS011;10568;48.176;16.316;2022-09-09T03:26:51;0.53;;;0.40;;
20814;SDS011;10568;48.176;16.316;2022-09-09T03:29:16;0.63;;;0.40;;
20814;SDS011;10568;48.176;16.316;2022-09-09T03:31:43;0.80;;;0.33;;
20814;SDS011;10568;48.176;16.316;2022-09-09T03:34:09;0.30;;;0.30;;
20814;SDS011;10568;48.176;16.316;2022-09-09T03:36:35;0.90;;;0.50;;
20814;SDS011;10568;48.176;16.316;2022-09-09T03:39:02;0.43;;;0.43;;
20814;SDS011;10568;48.176;16.316;2022-09-09T03:41:28;0.30;;;0.30;;
20814;SDS011;10568;48.176;16.316;2022-09-09T03:43:55;0.63;;;0.37;;
20814;SDS011;10568;48.176;16.316;2022-09-09T03:46:22;0.80;;;0.60;;
20814;SDS011;10568;48.176;16.316;2022-09-09T03:48:49;0.50;;;0.40;;
20814;SDS011;10568;48.176;16.316;2022-09-09T03:51:15;0.43;;;0.43;;
20814;SDS011;10568;48.176;16.316;2022-09-09T03:53:42;0.70;;;0.40;;
20814;SDS011;10568;48.176;16.316;2022-09-09T03:56:08;1.27;;;0.50;;
20814;SDS011;10568;48.176;16.316;2022-09-09T03:58:34;0.40;;;0.40;;
20814;SDS011;10568;48.176;16.316;2022-09-09T04:01:08;0.30;;;0.30;;
20814;SDS011;10568;48.176;16.316;2022-09-09T04:03:35;0.60;;;0.50;;
20814;SDS011;10568;48.176;16.316;2022-09-09T04:06:02;0.40;;;0.40;;
20814;SDS011;10568;48.176;16.316;2022-09-09T04:08:30;1.00;;;0.60;;
20814;SDS011;10568;48.176;16.316;2022-09-09T04:11:00;0.40;;;0.40;;
20814;SDS011;10568;48.176;16.316;2022-09-09T04:13:31;1.50;;;0.50;;
20814;SDS011;10568;48.176;16.316;2022-09-09T04:15:59;6.53;;;0.60;;
20814;SDS011;10568;48.176;16.316;2022-09-09T04:18:27;1.60;;;0.40;;
20814;SDS011;10568;48.176;16.316;2022-09-09T04:20:56;0.60;;;0.60;;
20814;SDS011;10568;48.176;16.316;2022-09-09T04:23:22;0.40;;;0.40;;
20814;SDS011;10568;48.176;16.316;2022-09-09T04:28:40;1.00;;;0.70;;
20814;SDS011;10568;48.176;16.316;2022-09-09T04:31:10;0.90;;;0.70;;
20814;SDS011;10568;48.176;16.316;2022-09-09T04:33:43;1.03;;;0.70;;
20814;SDS011;10568;48.176;16.316;2022-09-09T04:36:09;0.60;;;0.50;;
20814;SDS011;10568;48.176;16.316;2022-09-09T04:38:35;1.57;;;0.73;;
20814;SDS011;10568;48.176;16.316;2022-09-09T04:41:01;0.90;;;0.63;;
20814;SDS011;10568;48.176;16.316;2022-09-09T04:43:27;1.20;;;0.80;;
20814;SDS011;10568;48.176;16.316;2022-09-09T04:45:53;0.50;;;0.50;;
20814;SDS011;10568;48.176;16.316;2022-09-09T04:48:19;1.10;;;0.77;;
20814;SDS011;10568;48.176;16.316;2022-09-09T04:50:55;3.20;;;0.63;;
20814;SDS011;10568;48.176;16.316;2022-09-09T04:53:26;0.53;;;0.50;;
20814;SDS011;10568;48.176;16.316;2022-09-09T04:56:02;0.90;;;0.80;;
20814;SDS011;10568;48.176;16.316;2022-09-09T04:58:30;0.50;;;0.50;;
20814;SDS011;10568;48.176;16.316;2022-09-09T05:01:02;0.83;;;0.60;;
20814;SDS011;10568;48.176;16.316;2022-09-09T05:03:32;0.63;;;0.43;;
20814;SDS011;10568;48.176;16.316;2022-09-09T05:06:02;0.73;;;0.60;;
20814;SDS011;10568;48.176;16.316;2022-09-09T05:08:29;1.50;;;0.73;;
20814;SDS011;10568;48.176;16.316;2022-09-09T05:10:55;0.70;;;0.60;;
20814;SDS011;10568;48.176;16.316;2022-09-09T05:13:20;0.70;;;0.60;;
20814;SDS011;10568;48.176;16.316;2022-09-09T05:15:54;0.90;;;0.80;;
20814;SDS011;10568;48.176;16.316;2022-09-09T05:18:19;2.00;;;0.87;;
20814;SDS011;10568;48.176;16.316;2022-09-09T05:20:47;2.27;;;0.90;;
20814;SDS011;10568;48.176;16.316;2022-09-09T05:23:14;1.03;;;0.83;;
20814;SDS011;10568;48.176;16.316;2022-09-09T05:25:40;1.60;;;0.70;;
20814;SDS011;10568;48.176;16.316;2022-09-09T05:28:06;0.90;;;0.60;;
20814;SDS011;10568;48.176;16.316;2022-09-09T05:30:33;0.80;;;0.70;;
20814;SDS011;10568;48.176;16.316;2022-09-09T05:32:59;1.23;;;0.63;;
20814;SDS011;10568;48.176;16.316;2022-09-09T05:35:25;1.10;;;0.83;;
20814;SDS011;10568;48.176;16.316;2022-09-09T05:37:51;0.87;;;0.77;;
20814;SDS011;10568;48.176;16.316;2022-09-09T05:40:17;1.63;;;0.73;;
20814;SDS011;10568;48.176;16.316;2022-09-09T05:42:43;0.60;;;0.60;;
20814;SDS011;10568;48.176;16.316;2022-09-09T05:45:09;1.50;;;0.77;;
20814;SDS011;10568;48.176;16.316;2022-09-09T05:47:35;1.90;;;0.50;;
20814;SDS011;10568;48.176;16.316;2022-09-09T05:50:03;1.37;;;0.70;;
20814;SDS011;10568;48.176;16.316;2022-09-09T05:52:29;0.60;;;0.50;;
20814;SDS011;10568;48.176;16.316;2022-09-09T05:54:55;0.90;;;0.70;;
20814;SDS011;10568;48.176;16.316;2022-09-09T05:57:22;0.67;;;0.60;;
20814;SDS011;10568;48.176;16.316;2022-09-09T05:59:48;0.63;;;0.63;;
20814;SDS011;10568;48.176;16.316;2022-09-09T06:02:15;1.63;;;0.60;;
20814;SDS011;10568;48.176;16.316;2022-09-09T06:04:41;0.63;;;0.60;;
20814;SDS011;10568;48.176;16.316;2022-09-09T06:07:07;0.60;;;0.60;;
20814;SDS011;10568;48.176;16.316;2022-09-09T06:09:32;1.00;;;0.70;;
20814;SDS011;10568;48.176;16.316;2022-09-09T06:11:58;1.47;;;0.87;;
20814;SDS011;10568;48.176;16.316;2022-09-09T06:14:24;1.03;;;0.93;;
20814;SDS011;10568;48.176;16.316;2022-09-09T06:16:51;1.73;;;0.80;;
20814;SDS011;10568;48.176;16.316;2022-09-09T06:19:17;1.33;;;0.60;;
20814;SDS011;10568;48.176;16.316;2022-09-09T06:21:45;0.73;;;0.70;;
20814;SDS011;10568;48.176;16.316;2022-09-09T06:24:12;1.80;;;1.00;;
20814;SDS011;10568;48.176;16.316;2022-09-09T06:26:42;2.60;;;0.83;;
20814;SDS011;10568;48.176;16.316;2022-09-09T06:29:08;1.13;;;0.97;;
20814;SDS011;10568;48.176;16.316;2022-09-09T06:31:36;1.10;;;1.00;;
20814;SDS011;10568;48.176;16.316;2022-09-09T06:34:06;1.67;;;1.07;;
20814;SDS011;10568;48.176;16.316;2022-09-09T06:36:34;1.07;;;1.00;;
20814;SDS011;10568;48.176;16.316;2022-09-09T06:39:02;1.47;;;1.03;;
20814;SDS011;10568;48.176;16.316;2022-09-09T06:41:29;1.47;;;1.37;;
20814;SDS011;10568;48.176;16.316;2022-09-09T06:43:55;2.37;;;1.30;;
20814;SDS011;10568;48.176;16.316;2022-09-09T06:46:25;3.73;;;1.50;;
20814;SDS011;10568;48.176;16.316;2022-09-09T06:48:56;3.10;;;1.50;;
20814;SDS011;10568;48.176;16.316;2022-09-09T06:51:24;4.60;;;1.67;;
20814;SDS011;10568;48.176;16.316;2022-09-09T06:53:52;1.97;;;1.40;;
20814;SDS011;10568;48.176;16.316;2022-09-09T06:56:25;1.70;;;1.50;;
20814;SDS011;10568;48.176;16.316;2022-09-09T06:58:53;2.90;;;1.60;;
20814;SDS011;10568;48.176;16.316;2022-09-09T07:01:20;2.80;;;1.87;;
20814;SDS011;10568;48.176;16.316;2022-09-09T07:03:47;3.73;;;1.90;;
20814;SDS011;10568;48.176;16.316;2022-09-09T07:06:20;1.87;;;1.53;;
20814;SDS011;10568;48.176;16.316;2022-09-09T07:08:50;2.90;;;1.87;;
20814;SDS011;10568;48.176;16.316;2022-09-09T07:11:16;1.90;;;1.50;;
20814;SDS011;10568;48.176;16.316;2022-09-09T07:13:42;3.93;;;1.77;;
20814;SDS011;10568;48.176;16.316;2022-09-09T07:16:12;2.03;;;1.53;;
20814;SDS011;10568;48.176;16.316;2022-09-09T07:18:39;1.47;;;1.30;;
20814;SDS011;10568;48.176;16.316;2022-09-09T07:21:06;3.17;;;1.73;;
20814;SDS011;10568;48.176;16.316;2022-09-09T07:23:43;3.47;;;1.40;;
20814;SDS011;10568;48.176;16.316;2022-09-09T07:26:12;3.17;;;1.53;;
20814;SDS011;10568;48.176;16.316;2022-09-09T07:28:39;1.73;;;1.40;;
20814;SDS011;10568;48.176;16.316;2022-09-09T07:31:06;2.77;;;2.07;;
20814;SDS011;10568;48.176;16.316;2022-09-09T07:33:38;2.50;;;1.67;;
20814;SDS011;10568;48.176;16.316;2022-09-09T07:36:10;2.53;;;1.63;;
20814;SDS011;10568;48.176;16.316;2022-09-09T07:38:44;5.03;;;2.10;;
20814;SDS011;10568;48.176;16.316;2022-09-09T07:41:14;2.50;;;1.60;;
20814;SDS011;10568;48.176;16.316;2022-09-09T07:43:45;4.77;;;2.03;;
20814;SDS011;10568;48.176;16.316;2022-09-09T07:46:13;2.53;;;1.77;;
20814;SDS011;10568;48.176;16.316;2022-09-09T07:48:44;1.90;;;1.70;;
20814;SDS011;10568;48.176;16.316;2022-09-09T07:51:12;3.03;;;2.03;;
20814;SDS011;10568;48.176;16.316;2022-09-09T07:53:44;4.33;;;1.90;;
20814;SDS011;10568;48.176;16.316;2022-09-09T07:56:12;2.57;;;1.67;;
20814;SDS011;10568;48.176;16.316;2022-09-09T07:58:48;7.87;;;1.67;;
20814;SDS011;10568;48.176;16.316;2022-09-09T08:01:17;2.03;;;1.37;;
20814;SDS011;10568;48.176;16.316;2022-09-09T08:03:45;2.40;;;1.80;;
20814;SDS011;10568;48.176;16.316;2022-09-09T08:06:12;2.47;;;1.50;;
20814;SDS011;10568;48.176;16.316;2022-09-09T08:08:39;4.17;;;1.90;;
20814;SDS011;10568;48.176;16.316;2022-09-09T08:11:09;2.23;;;1.70;;
20814;SDS011;10568;48.176;16.316;2022-09-09T08:13:37;4.27;;;1.60;;
20814;SDS011;10568;48.176;16.316;2022-09-09T08:18:33;2.17;;;1.70;;
20814;SDS011;10568;48.176;16.316;2022-09-09T08:21:13;1.73;;;1.33;;
20814;SDS011;10568;48.176;16.316;2022-09-09T08:23:43;3.33;;;1.50;;
20814;SDS011;10568;48.176;16.316;2022-09-09T08:26:12;2.53;;;1.57;;
20814;SDS011;10568;48.176;16.316;2022-09-09T08:28:40;2.30;;;1.55;;
20814;SDS011;10568;48.176;16.316;2022-09-09T08:31:07;1.75;;;1.23;;
20814;SDS011;10568;48.176;16.316;2022-09-09T08:33:34;2.35;;;1.45;;
20814;SDS011;10568;48.176;16.316;2022-09-09T08:36:02;1.50;;;1.00;;
20814;SDS011;10568;48.176;16.316;2022-09-09T08:38:28;1.10;;;0.93;;
20814;SDS011;10568;48.176;16.316;2022-09-09T08:40:54;1.45;;;1.15;;
20814;SDS011;10568;48.176;16.316;2022-09-09T08:43:26;2.00;;;1.20;;
20814;SDS011;10568;48.176;16.316;2022-09-09T08:46:00;1.50;;;1.05;;
20814;SDS011;10568;48.176;16.316;2022-09-09T08:51:06;1.55;;;1.00;;
20814;SDS011;10568;48.176;16.316;2022-09-09T08:53:43;1.77;;;0.98;;
20814;SDS011;10568;48.176;16.316;2022-09-09T08:56:14;1.35;;;1.10;;
20814;SDS011;10568;48.176;16.316;2022-09-09T08:58:50;2.00;;;0.80;;
20814;SDS011;10568;48.176;16.316;2022-09-09T09:12:33;1.98;;;1.13;;
20814;SDS011;10568;48.176;16.316;2022-09-09T09:15:09;2.08;;;1.00;;
20814;SDS011;10568;48.176;16.316;2022-09-09T09:17:42;1.42;;;0.70;;
20814;SDS011;10568;48.176;16.316;2022-09-09T09:20:12;0.80;;;0.70;;
20814;SDS011;10568;48.176;16.316;2022-09-09T09:26:01;1.05;;;0.88;;
20814;SDS011;10568;48.176;16.316;2022-09-09T09:28:31;1.48;;;0.90;;
20814;SDS011;10568;48.176;16.316;2022-09-09T09:33:51;0.80;;;0.70;;
20814;SDS011;10568;48.176;16.316;2022-09-09T09:36:23;1.58;;;0.63;;
20814;SDS011;10568;48.176;16.316;2022-09-09T09:39:22;1.67;;;0.85;;
20814;SDS011;10568;48.176;16.316;2022-09-09T09:41:55;0.98;;;0.70;;
20814;SDS011;10568;48.176;16.316;2022-09-09T09:44:32;0.93;;;0.60;;
20814;SDS011;10568;48.176;16.316;2022-09-09T09:47:08;1.15;;;0.75;;
20814;SDS011;10568;48.176;16.316;2022-09-09T09:49:34;2.50;;;0.70;;
20814;SDS011;10568;48.176;16.316;2022-09-09T09:52:00;2.53;;;0.70;;
20814;SDS011;10568;48.176;16.316;2022-09-09T09:54:28;1.08;;;0.60;;
20814;SDS011;10568;48.176;16.316;2022-09-09T09:56:56;1.98;;;0.73;;
20814;SDS011;10568;48.176;16.316;2022-09-09T09:59:35;1.10;;;0.60;;
20814;SDS011;10568;48.176;16.316;2022-09-09T10:02:21;1.70;;;0.65;;
20814;SDS011;10568;48.176;16.316;2022-09-09T10:08:05;1.13;;;0.60;;
20814;SDS011;10568;48.176;16.316;2022-09-09T10:10:52;2.05;;;0.70;;
20814;SDS011;10568;48.176;16.316;2022-09-09T10:19:18;2.67;;;1.13;;
20814;SDS011;10568;48.176;16.316;2022-09-09T10:32:46;1.73;;;0.80;;
20814;SDS011;10568;48.176;16.316;2022-09-09T10:35:29;0.90;;;0.68;;
20814;SDS011;10568;48.176;16.316;2022-09-09T10:40:43;1.35;;;0.73;;
20814;SDS011;10568;48.176;16.316;2022-09-09T10:54:19;1.60;;;0.80;;
20814;SDS011;10568;48.176;16.316;2022-09-09T10:57:08;0.65;;;0.65;;
20814;SDS011;10568;48.176;16.316;2022-09-09T10:59:43;3.00;;;0.90;;
20814;SDS011;10568;48.176;16.316;2022-09-09T11:07:40;1.20;;;0.80;;
20814;SDS011;10568;48.176;16.316;2022-09-09T11:10:41;1.23;;;0.80;;
20814;SDS011;10568;48.176;16.316;2022-09-09T11:22:12;0.95;;;0.50;;
20814;SDS011;10568;48.176;16.316;2022-09-09T11:25:05;2.75;;;0.75;;
20814;SDS011;10568;48.176;16.316;2022-09-09T11:27:47;0.88;;;0.65;;
20814;SDS011;10568;48.176;16.316;2022-09-09T11:30:22;0.63;;;0.60;;
20814;SDS011;10568;48.176;16.316;2022-09-09T11:36:01;1.98;;;0.73;;
20814;SDS011;10568;48.176;16.316;2022-09-09T11:38:47;0.98;;;0.65;;
20814;SDS011;10568;48.176;16.316;2022-09-09T11:41:16;0.47;;;0.45;;
20814;SDS011;10568;48.176;16.316;2022-09-09T11:46:21;1.83;;;0.90;;
20814;SDS011;10568;48.176;16.316;2022-09-09T11:52:34;1.52;;;0.30;;
20814;SDS011;10568;48.176;16.316;2022-09-09T11:55:10;0.55;;;0.55;;
20814;SDS011;10568;48.176;16.316;2022-09-09T11:57:37;0.90;;;0.45;;
20814;SDS011;10568;48.176;16.316;2022-09-09T12:00:04;1.17;;;0.68;;
20814;SDS011;10568;48.176;16.316;2022-09-09T12:02:31;1.83;;;0.50;;
20814;SDS011;10568;48.176;16.316;2022-09-09T12:04:59;2.22;;;0.60;;
20814;SDS011;10568;48.176;16.316;2022-09-09T12:07:37;0.40;;;0.40;;
20814;SDS011;10568;48.176;16.316;2022-09-09T12:15:02;1.63;;;0.57;;
20814;SDS011;10568;48.176;16.316;2022-09-09T12:17:46;0.93;;;0.52;;
20814;SDS011;10568;48.176;16.316;2022-09-09T12:28:21;1.45;;;0.60;;
20814;SDS011;10568;48.176;16.316;2022-09-09T12:34:11;1.58;;;0.60;;
20814;SDS011;10568;48.176;16.316;2022-09-09T12:39:51;0.75;;;0.63;;
20814;SDS011;10568;48.176;16.316;2022-09-09T12:42:20;0.47;;;0.40;;
20814;SDS011;10568;48.176;16.316;2022-09-09T12:44:54;0.98;;;0.60;;
20814;SDS011;10568;48.176;16.316;2022-09-09T12:47:26;0.95;;;0.50;;
20814;SDS011;10568;48.176;16.316;2022-09-09T12:50:00;2.67;;;0.50;;
20814;SDS011;10568;48.176;16.316;2022-09-09T12:52:28;0.70;;;0.50;;
20814;SDS011;10568;48.176;16.316;2022-09-09T12:55:03;0.82;;;0.50;;
20814;SDS011;10568;48.176;16.316;2022-09-09T12:57:34;1.15;;;0.47;;
20814;SDS011;10568;48.176;16.316;2022-09-09T13:00:06;0.43;;;0.30;;
20814;SDS011;10568;48.176;16.316;2022-09-09T13:02:46;0.50;;;0.40;;
20814;SDS011;10568;48.176;16.316;2022-09-09T13:05:23;0.55;;;0.50;;
20814;SDS011;10568;48.176;16.316;2022-09-09T13:07:49;0.50;;;0.40;;
20814;SDS011;10568;48.176;16.316;2022-09-09T13:10:26;0.57;;;0.57;;
20814;SDS011;10568;48.176;16.316;2022-09-09T13:12:54;0.30;;;0.30;;
20814;SDS011;10568;48.176;16.316;2022-09-09T13:15:22;1.10;;;0.60;;
20814;SDS011;10568;48.176;16.316;2022-09-09T13:17:55;0.85;;;0.60;;
20814;SDS011;10568;48.176;16.316;2022-09-09T13:20:27;1.15;;;0.70;;
20814;SDS011;10568;48.176;16.316;2022-09-09T13:22:54;1.17;;;0.68;;
20814;SDS011;10568;48.176;16.316;2022-09-09T13:25:22;0.45;;;0.45;;
20814;SDS011;10568;48.176;16.316;2022-09-09T13:28:03;0.60;;;0.60;;
20814;SDS011;10568;48.176;16.316;2022-09-09T13:33:06;0.98;;;0.52;;
20814;SDS011;10568;48.176;16.316;2022-09-09T13:38:15;0.35;;;0.35;;
20814;SDS011;10568;48.176;16.316;2022-09-09T13:40:51;2.28;;;0.63;;
20814;SDS011;10568;48.176;16.316;2022-09-09T13:43:22;1.10;;;0.60;;
20814;SDS011;10568;48.176;16.316;2022-09-09T13:45:54;1.00;;;0.38;;
20814;SDS011;10568;48.176;16.316;2022-09-09T13:48:24;1.10;;;0.65;;
20814;SDS011;10568;48.176;16.316;2022-09-09T13:50:58;0.90;;;0.57;;
20814;SDS011;10568;48.176;16.316;2022-09-09T13:53:25;1.58;;;0.65;;
20814;SDS011;10568;48.176;16.316;2022-09-09T13:55:51;1.35;;;0.80;;
20814;SDS011;10568;48.176;16.316;2022-09-09T13:58:18;0.65;;;0.52;;
20814;SDS011;10568;48.176;16.316;2022-09-09T14:00:44;0.70;;;0.60;;
20814;SDS011;10568;48.176;16.316;2022-09-09T14:03:10;0.50;;;0.50;;
20814;SDS011;10568;48.176;16.316;2022-09-09T14:05:36;1.23;;;0.73;;
20814;SDS011;10568;48.176;16.316;2022-09-09T14:08:05;2.35;;;0.60;;
20814;SDS011;10568;48.176;16.316;2022-09-09T14:10:32;0.55;;;0.50;;
20814;SDS011;10568;48.176;16.316;2022-09-09T14:13:02;0.60;;;0.60;;
20814;SDS011;10568;48.176;16.316;2022-09-09T14:15:28;0.80;;;0.70;;
20814;SDS011;10568;48.176;16.316;2022-09-09T14:17:54;0.82;;;0.50;;
20814;SDS011;10568;48.176;16.316;2022-09-09T14:20:20;0.98;;;0.60;;
20814;SDS011;10568;48.176;16.316;2022-09-09T14:22:46;1.10;;;0.50;;
20814;SDS011;10568;48.176;16.316;2022-09-09T14:25:12;2.55;;;0.60;;
20814;SDS011;10568;48.176;16.316;2022-09-09T14:27:38;0.93;;;0.70;;
20814;SDS011;10568;48.176;16.316;2022-09-09T14:30:05;0.88;;;0.60;;
20814;SDS011;10568;48.176;16.316;2022-09-09T14:32:32;1.05;;;0.50;;
20814;SDS011;10568;48.176;16.316;2022-09-09T14:34:58;0.73;;;0.50;;
20814;SDS011;10568;48.176;16.316;2022-09-09T14:37:24;2.33;;;0.50;;
20814;SDS011;10568;48.176;16.316;2022-09-09T14:39:50;0.60;;;0.38;;
20814;SDS011;10568;48.176;16.316;2022-09-09T14:42:16;0.80;;;0.55;;
20814;SDS011;10568;48.176;16.316;2022-09-09T14:44:42;0.70;;;0.65;;
20814;SDS011;10568;48.176;16.316;2022-09-09T14:47:08;1.40;;;0.70;;
20814;SDS011;10568;48.176;16.316;2022-09-09T14:49:34;0.90;;;0.77;;
20814;SDS011;10568;48.176;16.316;2022-09-09T14:52:01;0.82;;;0.70;;
20814;SDS011;10568;48.176;16.316;2022-09-09T14:54:27;0.60;;;0.60;;
20814;SDS011;10568;48.176;16.316;2022-09-09T14:56:53;1.33;;;0.60;;
20814;SDS011;10568;48.176;16.316;2022-09-09T14:59:19;1.02;;;0.68;;
20814;SDS011;10568;48.176;16.316;2022-09-09T15:01:44;3.38;;;0.70;;
20814;SDS011;10568;48.176;16.316;2022-09-09T15:04:10;0.95;;;0.60;;
20814;SDS011;10568;48.176;16.316;2022-09-09T15:06:37;0.57;;;0.57;;
20814;SDS011;10568;48.176;16.316;2022-09-09T15:09:04;1.40;;;0.70;;
20814;SDS011;10568;48.176;16.316;2022-09-09T15:11:31;1.30;;;0.73;;
20814;SDS011;10568;48.176;16.316;2022-09-09T15:14:04;0.60;;;0.60;;
20814;SDS011;10568;48.176;16.316;2022-09-09T15:16:31;1.30;;;0.63;;
20814;SDS011;10568;48.176;16.316;2022-09-09T15:18:58;0.70;;;0.50;;
20814;SDS011;10568;48.176;16.316;2022-09-09T15:21:25;1.23;;;0.70;;
20814;SDS011;10568;48.176;16.316;2022-09-09T15:26:41;0.75;;;0.52;;
20814;SDS011;10568;48.176;16.316;2022-09-09T15:29:07;1.38;;;0.55;;
20814;SDS011;10568;48.176;16.316;2022-09-09T15:31:33;0.80;;;0.43;;
20814;SDS011;10568;48.176;16.316;2022-09-09T15:34:01;0.60;;;0.60;;
20814;SDS011;10568;48.176;16.316;2022-09-09T15:36:29;1.80;;;0.60;;
20814;SDS011;10568;48.176;16.316;2022-09-09T15:38:57;0.85;;;0.60;;
20814;SDS011;10568;48.176;16.316;2022-09-09T15:41:24;0.77;;;0.57;;
20814;SDS011;10568;48.176;16.316;2022-09-09T15:43:51;0.82;;;0.50;;
20814;SDS011;10568;48.176;16.316;2022-09-09T15:46:29;1.25;;;0.50;;
20814;SDS011;10568;48.176;16.316;2022-09-09T15:49:02;1.00;;;0.50;;
20814;SDS011;10568;48.176;16.316;2022-09-09T15:51:31;0.43;;;0.43;;
20814;SDS011;10568;48.176;16.316;2022-09-09T15:53:58;1.75;;;0.60;;
20814;SDS011;10568;48.176;16.316;2022-09-09T15:56:25;2.92;;;0.40;;
20814;SDS011;10568;48.176;16.316;2022-09-09T15:58:52;0.57;;;0.50;;
20814;SDS011;10568;48.176;16.316;2022-09-09T16:01:19;0.50;;;0.50;;
20814;SDS011;10568;48.176;16.316;2022-09-09T16:03:45;0.38;;;0.38;;
20814;SDS011;10568;48.176;16.316;2022-09-09T16:06:15;0.93;;;0.50;;
20814;SDS011;10568;48.176;16.316;2022-09-09T16:08:44;0.52;;;0.40;;
20814;SDS011;10568;48.176;16.316;2022-09-09T16:11:19;1.02;;;0.52;;
20814;SDS011;10568;48.176;16.316;2022-09-09T16:13:53;0.68;;;0.47;;
20814;SDS011;10568;48.176;16.316;2022-09-09T16:16:21;1.75;;;0.50;;
20814;SDS011;10568;48.176;16.316;2022-09-09T16:18:50;0.75;;;0.40;;
20814;SDS011;10568;48.176;16.316;2022-09-09T16:23:49;1.27;;;0.50;;
20814;SDS011;10568;48.176;16.316;2022-09-09T16:26:17;0.82;;;0.38;;
20814;SDS011;10568;48.176;16.316;2022-09-09T16:28:43;0.82;;;0.60;;
20814;SDS011;10568;48.176;16.316;2022-09-09T16:31:12;0.75;;;0.45;;
20814;SDS011;10568;48.176;16.316;2022-09-09T16:33:41;1.47;;;0.60;;
20814;SDS011;10568;48.176;16.316;2022-09-09T16:36:08;0.43;;;0.40;;
20814;SDS011;10568;48.176;16.316;2022-09-09T16:38:35;1.27;;;0.60;;
20814;SDS011;10568;48.176;16.316;2022-09-09T16:41:05;1.60;;;0.50;;
20814;SDS011;10568;48.176;16.316;2022-09-09T16:43:32;0.40;;;0.33;;
20814;SDS011;10568;48.176;16.316;2022-09-09T16:45:59;0.50;;;0.50;;
20814;SDS011;10568;48.176;16.316;2022-09-09T16:48:33;0.80;;;0.53;;
20814;SDS011;10568;48.176;16.316;2022-09-09T16:51:04;0.30;;;0.30;;
20814;SDS011;10568;48.176;16.316;2022-09-09T16:53:33;0.40;;;0.40;;
20814;SDS011;10568;48.176;16.316;2022-09-09T16:56:06;0.50;;;0.50;;
20814;SDS011;10568;48.176;16.316;2022-09-09T16:58:33;0.90;;;0.50;;
20814;SDS011;10568;48.176;16.316;2022-09-09T17:01:00;0.47;;;0.47;;
20814;SDS011;10568;48.176;16.316;2022-09-09T17:03:30;1.20;;;0.60;;
20814;SDS011;10568;48.176;16.316;2022-09-09T17:05:57;1.97;;;0.50;;
20814;SDS011;10568;48.176;16.316;2022-09-09T17:08:27;2.13;;;0.70;;
20814;SDS011;10568;48.176;16.316;2022-09-09T17:10:56;0.67;;;0.50;;
20814;SDS011;10568;48.176;16.316;2022-09-09T17:13:22;1.27;;;0.63;;
20814;SDS011;10568;48.176;16.316;2022-09-09T17:15:48;1.60;;;0.50;;
20814;SDS011;10568;48.176;16.316;2022-09-09T17:18:14;0.57;;;0.50;;
20814;SDS011;10568;48.176;16.316;2022-09-09T17:20:41;0.97;;;0.60;;
20814;SDS011;10568;48.176;16.316;2022-09-09T17:23:08;2.63;;;0.57;;
20814;SDS011;10568;48.176;16.316;2022-09-09T17:25:35;2.37;;;0.60;;
20814;SDS011;10568;48.176;16.316;2022-09-09T17:28:02;1.13;;;0.90;;